Terminal Aerodrome Forecast
Issued by NWS

Home | Current Version | Previous Version | Text Only | Print | Product List | Glossary On
Versions: 1 2 3 4 5 6 7 8 9 10 11 12 13 14 15 16 17 18 19
000
FTUS43 KPAH 191822 AAA
TAFCGI
TAF AMD
KCGI 191822Z 1918/2018 22006KT P6SM VCSH OVC025
      TEMPO 1918/1922 3SM -TSRA OVC015CB
     FM200000 20006KT P6SM VCTS SCT050CB BKN100
     FM200600 23006KT 4SM -SHRA BR BKN020 PROB30 2006/2012 2SM TSRA
      BR OVC008CB
     FM201200 29014G24KT P6SM BKN050=

USA.gov is the U.S. government's official web portal to all federal, state and local government web resources and services.